sensor_id;sensor_type;location;lat;lon;timestamp;P1;durP1;ratioP1;P2;durP2;ratioP2
10667;SDS011;5382;42.136;24.796;2023-06-26T00:00:54;7.45;;;5.82;;
10667;SDS011;5382;42.136;24.796;2023-06-26T00:03:21;8.93;;;5.75;;
10667;SDS011;5382;42.136;24.796;2023-06-26T00:05:48;6.65;;;5.50;;
10667;SDS011;5382;42.136;24.796;2023-06-26T00:08:15;8.23;;;6.10;;
10667;SDS011;5382;42.136;24.796;2023-06-26T00:10:42;8.75;;;6.13;;
10667;SDS011;5382;42.136;24.796;2023-06-26T00:13:09;8.50;;;6.45;;
10667;SDS011;5382;42.136;24.796;2023-06-26T00:15:37;9.82;;;6.30;;
10667;SDS011;5382;42.136;24.796;2023-06-26T00:18:07;6.97;;;5.65;;
10667;SDS011;5382;42.136;24.796;2023-06-26T00:20:33;8.20;;;6.40;;
10667;SDS011;5382;42.136;24.796;2023-06-26T00:23:00;8.75;;;6.00;;
10667;SDS011;5382;42.136;24.796;2023-06-26T00:25:29;9.32;;;6.25;;
10667;SDS011;5382;42.136;24.796;2023-06-26T00:27:56;6.90;;;5.40;;
10667;SDS011;5382;42.136;24.796;2023-06-26T00:30:22;6.57;;;5.45;;
10667;SDS011;5382;42.136;24.796;2023-06-26T00:32:49;7.13;;;6.07;;
10667;SDS011;5382;42.136;24.796;2023-06-26T00:35:18;7.63;;;6.50;;
10667;SDS011;5382;42.136;24.796;2023-06-26T00:37:45;6.85;;;5.47;;
10667;SDS011;5382;42.136;24.796;2023-06-26T00:40:12;10.73;;;6.45;;
10667;SDS011;5382;42.136;24.796;2023-06-26T00:42:39;9.88;;;6.25;;
10667;SDS011;5382;42.136;24.796;2023-06-26T00:45:06;12.10;;;6.47;;
10667;SDS011;5382;42.136;24.796;2023-06-26T00:47:33;11.38;;;6.70;;
10667;SDS011;5382;42.136;24.796;2023-06-26T00:50:01;6.85;;;6.15;;
10667;SDS011;5382;42.136;24.796;2023-06-26T00:52:30;7.93;;;6.30;;
10667;SDS011;5382;42.136;24.796;2023-06-26T00:54:57;10.75;;;6.03;;
10667;SDS011;5382;42.136;24.796;2023-06-26T00:57:24;7.50;;;6.32;;
10667;SDS011;5382;42.136;24.796;2023-06-26T00:59:51;8.38;;;6.65;;
10667;SDS011;5382;42.136;24.796;2023-06-26T01:02:18;10.85;;;6.28;;
10667;SDS011;5382;42.136;24.796;2023-06-26T01:04:45;10.18;;;6.43;;
10667;SDS011;5382;42.136;24.796;2023-06-26T01:07:14;7.38;;;6.55;;
10667;SDS011;5382;42.136;24.796;2023-06-26T01:09:45;8.60;;;7.20;;
10667;SDS011;5382;42.136;24.796;2023-06-26T01:12:13;11.52;;;7.15;;
10667;SDS011;5382;42.136;24.796;2023-06-26T01:14:41;9.32;;;7.20;;
10667;SDS011;5382;42.136;24.796;2023-06-26T01:17:08;8.88;;;7.22;;
10667;SDS011;5382;42.136;24.796;2023-06-26T01:19:37;8.40;;;7.32;;
10667;SDS011;5382;42.136;24.796;2023-06-26T01:22:07;10.10;;;7.20;;
10667;SDS011;5382;42.136;24.796;2023-06-26T01:24:42;11.88;;;7.00;;
10667;SDS011;5382;42.136;24.796;2023-06-26T01:27:21;9.70;;;7.35;;
10667;SDS011;5382;42.136;24.796;2023-06-26T01:29:50;9.80;;;7.35;;
10667;SDS011;5382;42.136;24.796;2023-06-26T01:32:18;9.75;;;7.25;;
10667;SDS011;5382;42.136;24.796;2023-06-26T01:34:45;10.30;;;7.32;;
10667;SDS011;5382;42.136;24.796;2023-06-26T01:37:12;9.93;;;7.63;;
10667;SDS011;5382;42.136;24.796;2023-06-26T01:39:39;9.75;;;8.10;;
10667;SDS011;5382;42.136;24.796;2023-06-26T01:42:06;15.73;;;8.05;;
10667;SDS011;5382;42.136;24.796;2023-06-26T01:44:35;9.10;;;8.13;;
10667;SDS011;5382;42.136;24.796;2023-06-26T01:47:06;9.13;;;7.80;;
10667;SDS011;5382;42.136;24.796;2023-06-26T01:49:38;9.77;;;8.30;;
10667;SDS011;5382;42.136;24.796;2023-06-26T01:52:14;10.88;;;8.10;;
10667;SDS011;5382;42.136;24.796;2023-06-26T01:54:49;11.60;;;8.23;;
10667;SDS011;5382;42.136;24.796;2023-06-26T01:57:22;8.73;;;7.65;;
10667;SDS011;5382;42.136;24.796;2023-06-26T01:59:53;9.68;;;8.23;;
10667;SDS011;5382;42.136;24.796;2023-06-26T02:02:22;10.85;;;9.00;;
10667;SDS011;5382;42.136;24.796;2023-06-26T02:04:50;11.00;;;7.72;;
10667;SDS011;5382;42.136;24.796;2023-06-26T02:07:17;10.15;;;8.05;;
10667;SDS011;5382;42.136;24.796;2023-06-26T02:09:43;10.80;;;8.35;;
10667;SDS011;5382;42.136;24.796;2023-06-26T02:12:10;10.07;;;8.43;;
10667;SDS011;5382;42.136;24.796;2023-06-26T02:14:37;12.05;;;8.93;;
10667;SDS011;5382;42.136;24.796;2023-06-26T02:17:05;9.98;;;8.57;;
10667;SDS011;5382;42.136;24.796;2023-06-26T02:19:33;9.60;;;7.85;;
10667;SDS011;5382;42.136;24.796;2023-06-26T02:22:00;10.25;;;8.23;;
10667;SDS011;5382;42.136;24.796;2023-06-26T02:24:27;10.98;;;8.60;;
10667;SDS011;5382;42.136;24.796;2023-06-26T02:26:55;11.02;;;8.57;;
10667;SDS011;5382;42.136;24.796;2023-06-26T02:29:22;9.18;;;8.25;;
10667;SDS011;5382;42.136;24.796;2023-06-26T02:31:49;10.98;;;8.60;;
10667;SDS011;5382;42.136;24.796;2023-06-26T02:34:17;12.32;;;8.90;;
10667;SDS011;5382;42.136;24.796;2023-06-26T02:36:44;10.85;;;8.77;;
10667;SDS011;5382;42.136;24.796;2023-06-26T02:39:10;12.90;;;8.77;;
10667;SDS011;5382;42.136;24.796;2023-06-26T02:41:37;12.18;;;8.77;;
10667;SDS011;5382;42.136;24.796;2023-06-26T02:44:04;13.60;;;9.02;;
10667;SDS011;5382;42.136;24.796;2023-06-26T02:46:31;12.95;;;8.68;;
10667;SDS011;5382;42.136;24.796;2023-06-26T02:48:58;10.68;;;8.82;;
10667;SDS011;5382;42.136;24.796;2023-06-26T02:51:27;10.18;;;8.75;;
10667;SDS011;5382;42.136;24.796;2023-06-26T02:53:53;11.68;;;9.10;;
10667;SDS011;5382;42.136;24.796;2023-06-26T02:56:20;11.48;;;9.57;;
10667;SDS011;5382;42.136;24.796;2023-06-26T02:58:47;12.65;;;9.07;;
10667;SDS011;5382;42.136;24.796;2023-06-26T03:01:14;12.73;;;9.50;;
10667;SDS011;5382;42.136;24.796;2023-06-26T03:03:41;12.60;;;11.05;;
10667;SDS011;5382;42.136;24.796;2023-06-26T03:06:08;13.15;;;9.60;;
10667;SDS011;5382;42.136;24.796;2023-06-26T03:08:36;14.27;;;9.65;;
10667;SDS011;5382;42.136;24.796;2023-06-26T03:11:04;11.20;;;9.43;;
10667;SDS011;5382;42.136;24.796;2023-06-26T03:13:31;15.23;;;9.80;;
10667;SDS011;5382;42.136;24.796;2023-06-26T03:15:58;13.82;;;9.73;;
10667;SDS011;5382;42.136;24.796;2023-06-26T03:18:25;12.40;;;9.50;;
10667;SDS011;5382;42.136;24.796;2023-06-26T03:20:52;10.05;;;8.88;;
10667;SDS011;5382;42.136;24.796;2023-06-26T03:23:20;16.30;;;10.23;;
10667;SDS011;5382;42.136;24.796;2023-06-26T03:25:51;12.88;;;9.50;;
10667;SDS011;5382;42.136;24.796;2023-06-26T03:28:18;10.63;;;9.13;;
10667;SDS011;5382;42.136;24.796;2023-06-26T03:30:45;12.60;;;9.50;;
10667;SDS011;5382;42.136;24.796;2023-06-26T03:33:12;11.43;;;9.40;;
10667;SDS011;5382;42.136;24.796;2023-06-26T03:35:38;12.65;;;9.07;;
10667;SDS011;5382;42.136;24.796;2023-06-26T03:38:05;11.05;;;9.57;;
10667;SDS011;5382;42.136;24.796;2023-06-26T03:40:32;12.75;;;9.30;;
10667;SDS011;5382;42.136;24.796;2023-06-26T03:43:00;12.40;;;9.45;;
10667;SDS011;5382;42.136;24.796;2023-06-26T03:45:27;12.80;;;9.95;;
10667;SDS011;5382;42.136;24.796;2023-06-26T03:47:54;11.45;;;9.38;;
10667;SDS011;5382;42.136;24.796;2023-06-26T03:50:21;13.95;;;10.02;;
10667;SDS011;5382;42.136;24.796;2023-06-26T03:52:48;12.73;;;10.07;;
10667;SDS011;5382;42.136;24.796;2023-06-26T03:55:15;12.82;;;9.63;;
10667;SDS011;5382;42.136;24.796;2023-06-26T03:57:47;11.05;;;9.07;;
10667;SDS011;5382;42.136;24.796;2023-06-26T04:00:16;13.95;;;9.07;;
10667;SDS011;5382;42.136;24.796;2023-06-26T04:02:43;13.45;;;9.18;;
10667;SDS011;5382;42.136;24.796;2023-06-26T04:05:10;14.63;;;9.88;;
10667;SDS011;5382;42.136;24.796;2023-06-26T04:07:37;13.70;;;10.75;;
10667;SDS011;5382;42.136;24.796;2023-06-26T04:10:04;12.35;;;9.98;;
10667;SDS011;5382;42.136;24.796;2023-06-26T04:12:32;12.15;;;10.48;;
10667;SDS011;5382;42.136;24.796;2023-06-26T04:14:58;14.20;;;10.40;;
10667;SDS011;5382;42.136;24.796;2023-06-26T04:17:26;10.77;;;9.50;;
10667;SDS011;5382;42.136;24.796;2023-06-26T04:19:53;13.35;;;10.45;;
10667;SDS011;5382;42.136;24.796;2023-06-26T04:22:20;16.80;;;10.02;;
10667;SDS011;5382;42.136;24.796;2023-06-26T04:24:47;11.30;;;10.20;;
10667;SDS011;5382;42.136;24.796;2023-06-26T04:27:14;16.92;;;10.57;;
10667;SDS011;5382;42.136;24.796;2023-06-26T04:29:41;13.93;;;10.07;;
10667;SDS011;5382;42.136;24.796;2023-06-26T04:32:08;14.25;;;10.52;;
10667;SDS011;5382;42.136;24.796;2023-06-26T04:34:37;14.40;;;10.30;;
10667;SDS011;5382;42.136;24.796;2023-06-26T04:37:06;14.65;;;10.65;;
10667;SDS011;5382;42.136;24.796;2023-06-26T04:39:34;13.27;;;9.80;;
10667;SDS011;5382;42.136;24.796;2023-06-26T04:42:03;11.35;;;10.00;;
10667;SDS011;5382;42.136;24.796;2023-06-26T04:44:31;11.30;;;9.93;;
10667;SDS011;5382;42.136;24.796;2023-06-26T04:46:58;12.93;;;10.85;;
10667;SDS011;5382;42.136;24.796;2023-06-26T04:49:25;14.40;;;11.38;;
10667;SDS011;5382;42.136;24.796;2023-06-26T04:51:54;13.75;;;10.98;;
10667;SDS011;5382;42.136;24.796;2023-06-26T04:54:21;11.38;;;9.95;;
10667;SDS011;5382;42.136;24.796;2023-06-26T04:56:48;12.88;;;10.45;;
10667;SDS011;5382;42.136;24.796;2023-06-26T04:59:15;11.55;;;10.35;;
10667;SDS011;5382;42.136;24.796;2023-06-26T05:01:42;12.00;;;10.15;;
10667;SDS011;5382;42.136;24.796;2023-06-26T05:04:13;11.23;;;10.10;;
10667;SDS011;5382;42.136;24.796;2023-06-26T05:06:40;13.48;;;10.45;;
10667;SDS011;5382;42.136;24.796;2023-06-26T05:09:08;14.98;;;10.35;;
10667;SDS011;5382;42.136;24.796;2023-06-26T05:11:36;11.68;;;10.18;;
10667;SDS011;5382;42.136;24.796;2023-06-26T05:14:02;11.63;;;9.13;;
10667;SDS011;5382;42.136;24.796;2023-06-26T05:16:32;11.18;;;9.00;;
10667;SDS011;5382;42.136;24.796;2023-06-26T05:18:59;12.57;;;9.95;;
10667;SDS011;5382;42.136;24.796;2023-06-26T05:21:26;11.95;;;9.63;;
10667;SDS011;5382;42.136;24.796;2023-06-26T05:23:54;12.60;;;9.98;;
10667;SDS011;5382;42.136;24.796;2023-06-26T05:26:24;12.05;;;9.25;;
10667;SDS011;5382;42.136;24.796;2023-06-26T05:28:52;10.77;;;9.73;;
10667;SDS011;5382;42.136;24.796;2023-06-26T05:31:20;9.73;;;8.75;;
10667;SDS011;5382;42.136;24.796;2023-06-26T05:33:47;10.15;;;9.20;;
10667;SDS011;5382;42.136;24.796;2023-06-26T05:36:15;11.07;;;9.57;;
10667;SDS011;5382;42.136;24.796;2023-06-26T05:38:44;11.38;;;9.02;;
10667;SDS011;5382;42.136;24.796;2023-06-26T05:41:11;14.00;;;9.30;;
10667;SDS011;5382;42.136;24.796;2023-06-26T05:43:40;12.32;;;9.02;;
10667;SDS011;5382;42.136;24.796;2023-06-26T05:46:07;9.65;;;8.75;;
10667;SDS011;5382;42.136;24.796;2023-06-26T05:48:33;10.95;;;9.30;;
10667;SDS011;5382;42.136;24.796;2023-06-26T05:51:00;9.60;;;7.97;;
10667;SDS011;5382;42.136;24.796;2023-06-26T05:53:29;10.63;;;8.13;;
10667;SDS011;5382;42.136;24.796;2023-06-26T05:55:56;11.40;;;8.68;;
10667;SDS011;5382;42.136;24.796;2023-06-26T05:58:24;10.60;;;8.93;;
10667;SDS011;5382;42.136;24.796;2023-06-26T06:00:54;9.50;;;8.07;;
10667;SDS011;5382;42.136;24.796;2023-06-26T06:03:21;10.10;;;7.80;;
10667;SDS011;5382;42.136;24.796;2023-06-26T06:05:49;10.15;;;7.88;;
10667;SDS011;5382;42.136;24.796;2023-06-26T06:08:16;9.68;;;8.20;;
10667;SDS011;5382;42.136;24.796;2023-06-26T06:10:43;9.52;;;7.57;;
10667;SDS011;5382;42.136;24.796;2023-06-26T06:13:09;8.25;;;7.35;;
10667;SDS011;5382;42.136;24.796;2023-06-26T06:15:36;9.00;;;7.90;;
10667;SDS011;5382;42.136;24.796;2023-06-26T06:18:05;9.20;;;8.05;;
10667;SDS011;5382;42.136;24.796;2023-06-26T06:20:32;9.27;;;6.80;;
10667;SDS011;5382;42.136;24.796;2023-06-26T06:22:58;9.10;;;7.82;;
10667;SDS011;5382;42.136;24.796;2023-06-26T06:25:25;8.52;;;7.63;;
10667;SDS011;5382;42.136;24.796;2023-06-26T06:27:52;9.23;;;7.53;;
10667;SDS011;5382;42.136;24.796;2023-06-26T06:30:19;11.60;;;7.78;;
10667;SDS011;5382;42.136;24.796;2023-06-26T06:32:46;10.32;;;7.78;;
10667;SDS011;5382;42.136;24.796;2023-06-26T06:35:17;10.60;;;7.53;;
10667;SDS011;5382;42.136;24.796;2023-06-26T06:37:44;11.10;;;7.18;;
10667;SDS011;5382;42.136;24.796;2023-06-26T06:40:11;9.50;;;7.00;;
10667;SDS011;5382;42.136;24.796;2023-06-26T06:42:39;10.43;;;7.97;;
10667;SDS011;5382;42.136;24.796;2023-06-26T06:45:06;10.32;;;7.85;;
10667;SDS011;5382;42.136;24.796;2023-06-26T06:47:34;9.30;;;7.22;;
10667;SDS011;5382;42.136;24.796;2023-06-26T06:50:01;13.50;;;7.35;;
10667;SDS011;5382;42.136;24.796;2023-06-26T06:52:34;11.45;;;7.25;;
10667;SDS011;5382;42.136;24.796;2023-06-26T06:55:02;7.93;;;6.50;;
10667;SDS011;5382;42.136;24.796;2023-06-26T06:57:32;11.50;;;7.00;;
10667;SDS011;5382;42.136;24.796;2023-06-26T07:00:01;7.20;;;6.50;;
10667;SDS011;5382;42.136;24.796;2023-06-26T07:02:29;9.70;;;6.55;;
10667;SDS011;5382;42.136;24.796;2023-06-26T07:04:59;7.97;;;6.15;;
10667;SDS011;5382;42.136;24.796;2023-06-26T07:07:28;7.32;;;6.20;;
10667;SDS011;5382;42.136;24.796;2023-06-26T07:09:58;8.55;;;6.28;;
10667;SDS011;5382;42.136;24.796;2023-06-26T07:12:25;8.00;;;5.85;;
10667;SDS011;5382;42.136;24.796;2023-06-26T07:14:52;11.20;;;6.70;;
10667;SDS011;5382;42.136;24.796;2023-06-26T07:17:20;10.32;;;6.28;;
10667;SDS011;5382;42.136;24.796;2023-06-26T07:19:46;8.82;;;5.55;;
10667;SDS011;5382;42.136;24.796;2023-06-26T07:22:13;6.70;;;5.93;;
10667;SDS011;5382;42.136;24.796;2023-06-26T07:24:40;6.75;;;6.15;;
10667;SDS011;5382;42.136;24.796;2023-06-26T07:27:09;9.90;;;6.45;;
10667;SDS011;5382;42.136;24.796;2023-06-26T07:29:35;8.05;;;6.00;;
10667;SDS011;5382;42.136;24.796;2023-06-26T07:32:02;7.10;;;5.78;;
10667;SDS011;5382;42.136;24.796;2023-06-26T07:34:29;10.63;;;6.50;;
10667;SDS011;5382;42.136;24.796;2023-06-26T07:36:58;8.40;;;6.00;;
10667;SDS011;5382;42.136;24.796;2023-06-26T07:39:24;8.70;;;5.57;;
10667;SDS011;5382;42.136;24.796;2023-06-26T07:41:51;8.73;;;5.82;;
10667;SDS011;5382;42.136;24.796;2023-06-26T07:44:20;8.25;;;6.05;;
10667;SDS011;5382;42.136;24.796;2023-06-26T07:46:46;8.07;;;6.13;;
10667;SDS011;5382;42.136;24.796;2023-06-26T07:49:14;7.53;;;5.40;;
10667;SDS011;5382;42.136;24.796;2023-06-26T07:51:40;5.93;;;5.35;;
10667;SDS011;5382;42.136;24.796;2023-06-26T07:54:07;7.55;;;5.35;;
10667;SDS011;5382;42.136;24.796;2023-06-26T07:56:35;7.50;;;5.75;;
10667;SDS011;5382;42.136;24.796;2023-06-26T07:59:20;9.15;;;5.72;;
10667;SDS011;5382;42.136;24.796;2023-06-26T08:01:48;6.60;;;5.90;;
10667;SDS011;5382;42.136;24.796;2023-06-26T08:04:17;6.00;;;5.45;;
10667;SDS011;5382;42.136;24.796;2023-06-26T08:06:45;5.80;;;5.30;;
10667;SDS011;5382;42.136;24.796;2023-06-26T08:09:12;6.18;;;5.40;;
10667;SDS011;5382;42.136;24.796;2023-06-26T08:11:39;7.78;;;5.78;;
10667;SDS011;5382;42.136;24.796;2023-06-26T08:14:07;5.88;;;5.18;;
10667;SDS011;5382;42.136;24.796;2023-06-26T08:16:35;6.38;;;5.32;;
10667;SDS011;5382;42.136;24.796;2023-06-26T08:19:02;9.02;;;5.53;;
10667;SDS011;5382;42.136;24.796;2023-06-26T08:21:29;6.38;;;5.20;;
10667;SDS011;5382;42.136;24.796;2023-06-26T08:23:55;8.07;;;6.80;;
10667;SDS011;5382;42.136;24.796;2023-06-26T08:26:22;9.02;;;6.63;;
10667;SDS011;5382;42.136;24.796;2023-06-26T08:28:49;7.53;;;6.63;;
10667;SDS011;5382;42.136;24.796;2023-06-26T08:31:16;8.85;;;6.00;;
10667;SDS011;5382;42.136;24.796;2023-06-26T08:33:44;8.60;;;6.13;;
10667;SDS011;5382;42.136;24.796;2023-06-26T08:36:11;6.55;;;5.95;;
10667;SDS011;5382;42.136;24.796;2023-06-26T08:38:38;9.23;;;6.90;;
10667;SDS011;5382;42.136;24.796;2023-06-26T08:41:06;9.93;;;6.35;;
10667;SDS011;5382;42.136;24.796;2023-06-26T08:43:33;6.75;;;6.13;;
10667;SDS011;5382;42.136;24.796;2023-06-26T08:46:01;6.70;;;6.00;;
10667;SDS011;5382;42.136;24.796;2023-06-26T08:48:29;9.15;;;6.28;;
10667;SDS011;5382;42.136;24.796;2023-06-26T08:50:59;7.32;;;5.45;;
10667;SDS011;5382;42.136;24.796;2023-06-26T08:53:33;6.55;;;4.80;;
10667;SDS011;5382;42.136;24.796;2023-06-26T08:56:06;6.13;;;5.35;;
10667;SDS011;5382;42.136;24.796;2023-06-26T08:58:33;7.03;;;5.45;;
10667;SDS011;5382;42.136;24.796;2023-06-26T09:01:02;10.55;;;5.68;;
10667;SDS011;5382;42.136;24.796;2023-06-26T09:03:31;9.02;;;5.82;;
10667;SDS011;5382;42.136;24.796;2023-06-26T09:06:00;6.22;;;5.28;;
10667;SDS011;5382;42.136;24.796;2023-06-26T09:08:34;7.43;;;5.07;;
10667;SDS011;5382;42.136;24.796;2023-06-26T09:11:01;7.82;;;5.03;;
10667;SDS011;5382;42.136;24.796;2023-06-26T09:13:28;6.38;;;4.88;;
10667;SDS011;5382;42.136;24.796;2023-06-26T09:15:55;8.60;;;4.85;;
10667;SDS011;5382;42.136;24.796;2023-06-26T09:18:36;5.63;;;4.78;;
10667;SDS011;5382;42.136;24.796;2023-06-26T09:21:09;5.95;;;4.75;;
10667;SDS011;5382;42.136;24.796;2023-06-26T09:23:36;5.18;;;4.68;;
10667;SDS011;5382;42.136;24.796;2023-06-26T09:26:03;8.93;;;5.30;;
10667;SDS011;5382;42.136;24.796;2023-06-26T09:28:30;6.15;;;4.72;;
10667;SDS011;5382;42.136;24.796;2023-06-26T09:31:00;5.75;;;5.13;;
10667;SDS011;5382;42.136;24.796;2023-06-26T09:33:32;7.35;;;6.28;;
10667;SDS011;5382;42.136;24.796;2023-06-26T09:36:02;7.22;;;4.75;;
10667;SDS011;5382;42.136;24.796;2023-06-26T09:38:33;6.07;;;5.28;;
10667;SDS011;5382;42.136;24.796;2023-06-26T09:41:00;7.82;;;5.43;;
10667;SDS011;5382;42.136;24.796;2023-06-26T09:43:27;5.90;;;5.28;;
10667;SDS011;5382;42.136;24.796;2023-06-26T09:45:56;6.68;;;5.70;;
10667;SDS011;5382;42.136;24.796;2023-06-26T09:48:24;6.70;;;5.68;;
10667;SDS011;5382;42.136;24.796;2023-06-26T09:50:51;6.75;;;5.40;;
10667;SDS011;5382;42.136;24.796;2023-06-26T09:53:20;6.50;;;5.75;;
10667;SDS011;5382;42.136;24.796;2023-06-26T09:55:48;4.63;;;4.15;;
10667;SDS011;5382;42.136;24.796;2023-06-26T09:58:15;4.78;;;4.38;;
10667;SDS011;5382;42.136;24.796;2023-06-26T10:00:43;6.22;;;4.22;;
10667;SDS011;5382;42.136;24.796;2023-06-26T10:03:10;5.30;;;3.42;;
10667;SDS011;5382;42.136;24.796;2023-06-26T10:05:38;6.20;;;3.72;;
10667;SDS011;5382;42.136;24.796;2023-06-26T10:08:05;4.78;;;3.60;;
10667;SDS011;5382;42.136;24.796;2023-06-26T10:10:33;6.80;;;3.78;;
10667;SDS011;5382;42.136;24.796;2023-06-26T10:13:06;4.93;;;3.50;;
10667;SDS011;5382;42.136;24.796;2023-06-26T10:15:41;4.28;;;3.50;;
10667;SDS011;5382;42.136;24.796;2023-06-26T10:18:10;4.85;;;3.88;;
10667;SDS011;5382;42.136;24.796;2023-06-26T10:20:39;4.40;;;3.78;;
10667;SDS011;5382;42.136;24.796;2023-06-26T10:23:07;5.32;;;4.55;;
10667;SDS011;5382;42.136;24.796;2023-06-26T10:25:37;9.60;;;4.25;;
10667;SDS011;5382;42.136;24.796;2023-06-26T10:28:08;5.10;;;4.40;;
10667;SDS011;5382;42.136;24.796;2023-06-26T10:30:37;7.10;;;4.97;;
10667;SDS011;5382;42.136;24.796;2023-06-26T10:33:06;6.97;;;5.15;;
10667;SDS011;5382;42.136;24.796;2023-06-26T10:35:40;8.40;;;6.03;;
10667;SDS011;5382;42.136;24.796;2023-06-26T10:38:08;5.25;;;4.63;;
10667;SDS011;5382;42.136;24.796;2023-06-26T10:40:41;8.27;;;5.57;;
10667;SDS011;5382;42.136;24.796;2023-06-26T10:43:11;7.03;;;5.57;;
10667;SDS011;5382;42.136;24.796;2023-06-26T10:45:42;9.43;;;5.93;;
10667;SDS011;5382;42.136;24.796;2023-06-26T10:48:12;9.82;;;6.13;;
10667;SDS011;5382;42.136;24.796;2023-06-26T10:50:40;6.53;;;5.40;;
10667;SDS011;5382;42.136;24.796;2023-06-26T10:53:07;6.68;;;5.15;;
10667;SDS011;5382;42.136;24.796;2023-06-26T10:55:36;5.68;;;4.28;;
10667;SDS011;5382;42.136;24.796;2023-06-26T10:58:03;6.75;;;4.70;;
10667;SDS011;5382;42.136;24.796;2023-06-26T11:00:31;7.63;;;4.40;;
10667;SDS011;5382;42.136;24.796;2023-06-26T11:02:58;4.90;;;4.40;;
10667;SDS011;5382;42.136;24.796;2023-06-26T11:05:26;4.70;;;4.05;;
10667;SDS011;5382;42.136;24.796;2023-06-26T11:08:04;7.07;;;4.95;;
10667;SDS011;5382;42.136;24.796;2023-06-26T11:10:48;5.80;;;4.65;;
10667;SDS011;5382;42.136;24.796;2023-06-26T11:13:17;6.93;;;4.70;;
10667;SDS011;5382;42.136;24.796;2023-06-26T11:15:47;8.18;;;6.13;;
10667;SDS011;5382;42.136;24.796;2023-06-26T11:18:16;6.03;;;4.97;;
10667;SDS011;5382;42.136;24.796;2023-06-26T11:20:43;7.43;;;5.57;;
10667;SDS011;5382;42.136;24.796;2023-06-26T11:23:10;8.60;;;5.95;;
10667;SDS011;5382;42.136;24.796;2023-06-26T11:25:38;10.15;;;5.90;;
10667;SDS011;5382;42.136;24.796;2023-06-26T11:28:05;9.15;;;5.60;;
10667;SDS011;5382;42.136;24.796;2023-06-26T11:30:32;5.68;;;4.97;;
10667;SDS011;5382;42.136;24.796;2023-06-26T11:33:06;6.03;;;5.43;;
10667;SDS011;5382;42.136;24.796;2023-06-26T11:35:34;6.60;;;5.30;;
10667;SDS011;5382;42.136;24.796;2023-06-26T11:38:01;8.77;;;5.63;;
10667;SDS011;5382;42.136;24.796;2023-06-26T11:40:30;5.72;;;5.05;;
10667;SDS011;5382;42.136;24.796;2023-06-26T11:42:57;8.50;;;6.10;;
10667;SDS011;5382;42.136;24.796;2023-06-26T11:45:27;9.40;;;5.85;;
10667;SDS011;5382;42.136;24.796;2023-06-26T11:47:54;7.07;;;6.35;;
10667;SDS011;5382;42.136;24.796;2023-06-26T11:50:23;8.30;;;7.50;;
10667;SDS011;5382;42.136;24.796;2023-06-26T11:52:53;9.65;;;7.55;;
10667;SDS011;5382;42.136;24.796;2023-06-26T11:55:21;7.43;;;6.72;;
10667;SDS011;5382;42.136;24.796;2023-06-26T11:57:48;6.97;;;6.28;;
10667;SDS011;5382;42.136;24.796;2023-06-26T12:00:16;7.75;;;6.22;;
10667;SDS011;5382;42.136;24.796;2023-06-26T12:02:44;7.55;;;6.15;;
10667;SDS011;5382;42.136;24.796;2023-06-26T12:05:12;7.68;;;6.00;;
10667;SDS011;5382;42.136;24.796;2023-06-26T12:07:44;7.13;;;5.00;;
10667;SDS011;5382;42.136;24.796;2023-06-26T12:10:13;5.40;;;4.65;;
10667;SDS011;5382;42.136;24.796;2023-06-26T12:12:41;5.20;;;4.70;;
10667;SDS011;5382;42.136;24.796;2023-06-26T12:15:09;4.75;;;4.25;;
10667;SDS011;5382;42.136;24.796;2023-06-26T12:17:42;7.82;;;5.47;;
10667;SDS011;5382;42.136;24.796;2023-06-26T12:20:17;6.15;;;4.55;;
10667;SDS011;5382;42.136;24.796;2023-06-26T12:22:47;5.03;;;4.53;;
10667;SDS011;5382;42.136;24.796;2023-06-26T12:25:14;7.05;;;5.00;;
10667;SDS011;5382;42.136;24.796;2023-06-26T12:27:44;4.82;;;4.13;;
10667;SDS011;5382;42.136;24.796;2023-06-26T12:30:11;5.57;;;3.95;;
10667;SDS011;5382;42.136;24.796;2023-06-26T12:32:39;5.22;;;3.97;;
10667;SDS011;5382;42.136;24.796;2023-06-26T12:35:06;6.13;;;3.78;;
10667;SDS011;5382;42.136;24.796;2023-06-26T12:37:36;5.15;;;4.32;;
10667;SDS011;5382;42.136;24.796;2023-06-26T12:40:09;6.68;;;4.65;;
10667;SDS011;5382;42.136;24.796;2023-06-26T12:42:44;5.47;;;4.03;;
10667;SDS011;5382;42.136;24.796;2023-06-26T12:45:12;7.03;;;4.53;;
10667;SDS011;5382;42.136;24.796;2023-06-26T12:47:40;6.35;;;4.28;;
10667;SDS011;5382;42.136;24.796;2023-06-26T12:50:07;6.72;;;4.95;;
10667;SDS011;5382;42.136;24.796;2023-06-26T12:52:34;7.57;;;5.32;;
10667;SDS011;5382;42.136;24.796;2023-06-26T12:55:01;10.85;;;6.00;;
10667;SDS011;5382;42.136;24.796;2023-06-26T12:57:30;5.97;;;4.72;;
10667;SDS011;5382;42.136;24.796;2023-06-26T12:59:57;6.63;;;4.68;;
10667;SDS011;5382;42.136;24.796;2023-06-26T13:02:24;5.50;;;4.45;;
10667;SDS011;5382;42.136;24.796;2023-06-26T13:04:51;5.88;;;4.07;;
10667;SDS011;5382;42.136;24.796;2023-06-26T13:07:18;18.25;;;6.15;;
10667;SDS011;5382;42.136;24.796;2023-06-26T13:09:45;8.82;;;4.75;;
10667;SDS011;5382;42.136;24.796;2023-06-26T13:12:13;5.05;;;4.45;;
10667;SDS011;5382;42.136;24.796;2023-06-26T13:14:42;5.32;;;4.72;;
10667;SDS011;5382;42.136;24.796;2023-06-26T13:17:08;6.32;;;5.28;;
10667;SDS011;5382;42.136;24.796;2023-06-26T13:19:37;6.72;;;5.32;;
10667;SDS011;5382;42.136;24.796;2023-06-26T13:22:04;5.32;;;4.70;;
10667;SDS011;5382;42.136;24.796;2023-06-26T13:24:31;6.72;;;5.00;;
10667;SDS011;5382;42.136;24.796;2023-06-26T13:26:58;8.80;;;5.03;;
10667;SDS011;5382;42.136;24.796;2023-06-26T13:29:28;6.75;;;4.60;;
10667;SDS011;5382;42.136;24.796;2023-06-26T13:31:56;5.65;;;4.50;;
10667;SDS011;5382;42.136;24.796;2023-06-26T13:34:23;9.07;;;3.78;;
10667;SDS011;5382;42.136;24.796;2023-06-26T13:36:52;5.28;;;3.58;;
10667;SDS011;5382;42.136;24.796;2023-06-26T13:39:20;5.00;;;3.00;;
10667;SDS011;5382;42.136;24.796;2023-06-26T13:41:47;4.35;;;3.05;;
10667;SDS011;5382;42.136;24.796;2023-06-26T13:44:13;3.17;;;2.75;;
10667;SDS011;5382;42.136;24.796;2023-06-26T13:46:40;3.50;;;2.67;;
10667;SDS011;5382;42.136;24.796;2023-06-26T13:49:08;4.28;;;3.03;;
10667;SDS011;5382;42.136;24.796;2023-06-26T13:51:35;4.65;;;3.17;;
10667;SDS011;5382;42.136;24.796;2023-06-26T13:54:03;7.78;;;3.72;;
10667;SDS011;5382;42.136;24.796;2023-06-26T13:56:29;6.90;;;3.85;;
10667;SDS011;5382;42.136;24.796;2023-06-26T13:58:56;7.18;;;4.13;;
10667;SDS011;5382;42.136;24.796;2023-06-26T14:01:23;4.13;;;3.72;;
10667;SDS011;5382;42.136;24.796;2023-06-26T14:03:50;3.47;;;3.00;;
10667;SDS011;5382;42.136;24.796;2023-06-26T14:06:19;3.65;;;3.25;;
10667;SDS011;5382;42.136;24.796;2023-06-26T14:08:46;3.67;;;3.28;;
10667;SDS011;5382;42.136;24.796;2023-06-26T14:11:12;3.55;;;2.72;;
10667;SDS011;5382;42.136;24.796;2023-06-26T14:13:40;4.65;;;2.85;;
10667;SDS011;5382;42.136;24.796;2023-06-26T14:16:07;4.55;;;3.33;;
10667;SDS011;5382;42.136;24.796;2023-06-26T14:18:34;6.82;;;3.45;;
10667;SDS011;5382;42.136;24.796;2023-06-26T14:21:01;5.10;;;2.65;;
10667;SDS011;5382;42.136;24.796;2023-06-26T14:23:30;4.10;;;3.50;;
10667;SDS011;5382;42.136;24.796;2023-06-26T14:25:57;3.22;;;2.90;;
10667;SDS011;5382;42.136;24.796;2023-06-26T14:28:24;4.38;;;3.40;;
10667;SDS011;5382;42.136;24.796;2023-06-26T14:30:51;4.60;;;3.45;;
10667;SDS011;5382;42.136;24.796;2023-06-26T14:33:17;13.15;;;4.60;;
10667;SDS011;5382;42.136;24.796;2023-06-26T14:35:44;6.30;;;3.72;;
10667;SDS011;5382;42.136;24.796;2023-06-26T14:38:11;8.88;;;4.20;;
10667;SDS011;5382;42.136;24.796;2023-06-26T14:40:39;7.72;;;4.53;;
10667;SDS011;5382;42.136;24.796;2023-06-26T14:43:10;3.83;;;3.28;;
10667;SDS011;5382;42.136;24.796;2023-06-26T14:45:36;5.45;;;3.50;;
10667;SDS011;5382;42.136;24.796;2023-06-26T14:48:03;6.13;;;3.55;;